sensor_id;sensor_type;location;lat;lon;timestamp;pressure;altitude;pressure_sealevel;temperature;humidity
72395;BME280;60384;48.152;11.614;2023-12-20T00:02:33;95507.66;;;8.47;48.70
72395;BME280;60384;48.152;11.614;2023-12-20T00:05:35;95585.97;;;9.03;49.04
72395;BME280;60384;48.152;11.614;2023-12-20T00:08:41;95445.25;;;8.13;49.20
72395;BME280;60384;48.152;11.614;2023-12-20T00:11:44;95562.34;;;8.93;49.04
72395;BME280;60384;48.152;11.614;2023-12-20T00:14:48;95573.81;;;9.09;49.19
72395;BME280;60384;48.152;11.614;2023-12-20T00:17:50;95569.50;;;9.08;49.21
72395;BME280;60384;48.152;11.614;2023-12-20T00:20:51;95567.00;;;9.06;49.40
72395;BME280;60384;48.152;11.614;2023-12-20T00:23:53;95563.59;;;8.97;49.10
72395;BME280;60384;48.152;11.614;2023-12-20T00:26:55;95565.25;;;8.98;49.49
72395;BME280;60384;48.152;11.614;2023-12-20T00:29:59;95557.03;;;9.08;49.33
72395;BME280;60384;48.152;11.614;2023-12-20T00:33:01;95393.91;;;8.06;49.00
72395;BME280;60384;48.152;11.614;2023-12-20T00:36:03;95567.19;;;9.04;49.57
72395;BME280;60384;48.152;11.614;2023-12-20T00:39:06;95487.03;;;8.57;49.66
72395;BME280;60384;48.152;11.614;2023-12-20T00:42:08;95525.69;;;8.89;49.46
72395;BME280;60384;48.152;11.614;2023-12-20T00:45:11;95540.00;;;9.02;49.50
72395;BME280;60384;48.152;11.614;2023-12-20T00:48:13;95465.59;;;8.58;49.31
72395;BME280;60384;48.152;11.614;2023-12-20T00:51:15;95474.47;;;8.65;49.28
72395;BME280;60384;48.152;11.614;2023-12-20T00:54:17;95339.47;;;7.81;49.39
72395;BME280;60384;48.152;11.614;2023-12-20T00:57:19;95461.13;;;8.59;49.14
72395;BME280;60384;48.152;11.614;2023-12-20T01:00:22;95499.59;;;8.92;48.84
72395;BME280;60384;48.152;11.614;2023-12-20T01:03:24;95408.78;;;8.30;49.35
72395;BME280;60384;48.152;11.614;2023-12-20T01:06:26;95511.97;;;9.15;48.98
72395;BME280;60384;48.152;11.614;2023-12-20T01:09:28;95436.13;;;8.53;48.98
72395;BME280;60384;48.152;11.614;2023-12-20T01:12:30;95506.66;;;9.15;48.81
72395;BME280;60384;48.152;11.614;2023-12-20T01:15:33;95511.78;;;9.16;48.80
72395;BME280;60384;48.152;11.614;2023-12-20T01:18:35;95444.03;;;8.76;48.81
72395;BME280;60384;48.152;11.614;2023-12-20T01:21:37;95426.72;;;8.65;48.97
72395;BME280;60384;48.152;11.614;2023-12-20T01:24:39;95501.78;;;9.18;48.83
72395;BME280;60384;48.152;11.614;2023-12-20T01:27:41;95475.06;;;9.05;48.73
72395;BME280;60384;48.152;11.614;2023-12-20T01:30:44;95496.31;;;9.20;48.52
72395;BME280;60384;48.152;11.614;2023-12-20T01:33:46;95474.41;;;9.03;48.77
72395;BME280;60384;48.152;11.614;2023-12-20T01:36:48;95489.16;;;9.20;49.04
72395;BME280;60384;48.152;11.614;2023-12-20T01:39:50;95482.84;;;9.21;48.92
72395;BME280;60384;48.152;11.614;2023-12-20T01:42:58;95491.28;;;9.25;48.76
72395;BME280;60384;48.152;11.614;2023-12-20T01:46:02;95324.91;;;8.14;48.64
72395;BME280;60384;48.152;11.614;2023-12-20T01:49:04;95470.94;;;9.17;48.88
72395;BME280;60384;48.152;11.614;2023-12-20T01:52:08;95370.69;;;8.60;49.23
72395;BME280;60384;48.152;11.614;2023-12-20T01:55:10;95428.34;;;8.96;49.02
72395;BME280;60384;48.152;11.614;2023-12-20T01:58:15;95391.31;;;8.73;49.07
72395;BME280;60384;48.152;11.614;2023-12-20T02:01:19;95450.88;;;9.15;49.03
72395;BME280;60384;48.152;11.614;2023-12-20T02:04:21;95468.38;;;9.24;49.11
72395;BME280;60384;48.152;11.614;2023-12-20T02:07:23;95456.56;;;9.26;49.06
72395;BME280;60384;48.152;11.614;2023-12-20T02:10:25;95434.03;;;9.22;49.02
72395;BME280;60384;48.152;11.614;2023-12-20T02:13:27;95321.09;;;8.61;49.23
72395;BME280;60384;48.152;11.614;2023-12-20T02:16:30;95173.41;;;7.73;48.69
72395;BME280;60384;48.152;11.614;2023-12-20T02:19:32;95418.00;;;9.30;48.90
72395;BME280;60384;48.152;11.614;2023-12-20T02:22:36;95422.91;;;9.33;49.10
72395;BME280;60384;48.152;11.614;2023-12-20T02:25:38;95398.38;;;9.17;49.19
72395;BME280;60384;48.152;11.614;2023-12-20T02:28:40;95341.84;;;8.87;48.98
72395;BME280;60384;48.152;11.614;2023-12-20T02:31:42;95432.16;;;9.37;48.97
72395;BME280;60384;48.152;11.614;2023-12-20T02:34:44;95293.94;;;8.59;48.91
72395;BME280;60384;48.152;11.614;2023-12-20T02:37:47;95419.88;;;9.36;48.82
72395;BME280;60384;48.152;11.614;2023-12-20T02:40:49;95064.00;;;7.14;49.08
72395;BME280;60384;48.152;11.614;2023-12-20T02:43:51;95144.00;;;7.68;48.97
72395;BME280;60384;48.152;11.614;2023-12-20T02:46:53;95356.66;;;9.11;49.09
72395;BME280;60384;48.152;11.614;2023-12-20T02:49:55;95396.25;;;9.42;49.31
72395;BME280;60384;48.152;11.614;2023-12-20T02:52:58;95411.44;;;9.48;49.24
72395;BME280;60384;48.152;11.614;2023-12-20T02:56:00;95403.28;;;9.49;49.23
72395;BME280;60384;48.152;11.614;2023-12-20T02:59:02;95401.22;;;9.51;49.20
72395;BME280;60384;48.152;11.614;2023-12-20T03:02:06;95379.00;;;9.37;49.35
72395;BME280;60384;48.152;11.614;2023-12-20T03:05:08;95245.53;;;8.57;49.22
72395;BME280;60384;48.152;11.614;2023-12-20T03:08:11;95239.63;;;8.40;49.46
72395;BME280;60384;48.152;11.614;2023-12-20T03:11:13;95036.59;;;7.21;49.46
72395;BME280;60384;48.152;11.614;2023-12-20T03:14:15;95398.06;;;9.41;49.44
72395;BME280;60384;48.152;11.614;2023-12-20T03:17:17;95353.41;;;9.15;49.63
72395;BME280;60384;48.152;11.614;2023-12-20T03:20:21;95410.22;;;9.50;49.88
72395;BME280;60384;48.152;11.614;2023-12-20T03:23:24;95404.06;;;9.50;49.76
72395;BME280;60384;48.152;11.614;2023-12-20T03:26:26;95228.44;;;8.45;50.07
72395;BME280;60384;48.152;11.614;2023-12-20T03:29:28;95407.56;;;9.50;49.95
72395;BME280;60384;48.152;11.614;2023-12-20T03:32:30;95220.59;;;8.37;50.04
72395;BME280;60384;48.152;11.614;2023-12-20T03:35:32;95406.72;;;9.50;50.09
72395;BME280;60384;48.152;11.614;2023-12-20T03:38:36;95404.13;;;9.35;49.91
72395;BME280;60384;48.152;11.614;2023-12-20T03:41:38;95417.38;;;9.50;50.24
72395;BME280;60384;48.152;11.614;2023-12-20T03:44:40;95426.38;;;9.49;50.50
72395;BME280;60384;48.152;11.614;2023-12-20T03:47:42;95326.66;;;8.81;50.40
72395;BME280;60384;48.152;11.614;2023-12-20T03:50:44;95441.03;;;9.45;50.73
72395;BME280;60384;48.152;11.614;2023-12-20T03:53:47;95303.09;;;8.56;50.77
72395;BME280;60384;48.152;11.614;2023-12-20T03:56:49;95401.81;;;9.11;50.93
72395;BME280;60384;48.152;11.614;2023-12-20T03:59:51;95450.38;;;9.40;51.00
72395;BME280;60384;48.152;11.614;2023-12-20T04:02:53;95455.88;;;9.39;51.47
72395;BME280;60384;48.152;11.614;2023-12-20T04:05:55;95455.56;;;9.27;51.75
72395;BME280;60384;48.152;11.614;2023-12-20T04:08:59;95411.97;;;8.92;51.64
72395;BME280;60384;48.152;11.614;2023-12-20T04:12:00;95363.19;;;8.64;52.28
72395;BME280;60384;48.152;11.614;2023-12-20T04:15:03;95450.50;;;9.18;52.35
72395;BME280;60384;48.152;11.614;2023-12-20T04:18:09;95304.81;;;8.20;52.52
72395;BME280;60384;48.152;11.614;2023-12-20T04:21:11;95377.03;;;8.59;52.82
72395;BME280;60384;48.152;11.614;2023-12-20T04:24:14;95439.44;;;8.99;53.04
72395;BME280;60384;48.152;11.614;2023-12-20T04:27:17;95393.31;;;8.42;53.06
72395;BME280;60384;48.152;11.614;2023-12-20T04:30:19;95371.34;;;8.48;53.59
72395;BME280;60384;48.152;11.614;2023-12-20T04:33:21;95403.34;;;8.61;53.49
72395;BME280;60384;48.152;11.614;2023-12-20T04:36:23;95447.75;;;8.96;53.81
72395;BME280;60384;48.152;11.614;2023-12-20T04:39:27;95442.56;;;8.88;53.67
72395;BME280;60384;48.152;11.614;2023-12-20T04:42:29;95442.81;;;8.79;54.03
72395;BME280;60384;48.152;11.614;2023-12-20T04:45:31;95456.00;;;8.87;53.84
72395;BME280;60384;48.152;11.614;2023-12-20T04:48:33;95368.19;;;8.29;54.07
72395;BME280;60384;48.152;11.614;2023-12-20T04:51:35;95350.50;;;8.07;54.04
72395;BME280;60384;48.152;11.614;2023-12-20T04:54:38;95477.97;;;8.81;54.70
72395;BME280;60384;48.152;11.614;2023-12-20T04:57:40;95477.25;;;8.72;54.65
72395;BME280;60384;48.152;11.614;2023-12-20T05:00:43;95481.53;;;8.58;55.87
72395;BME280;60384;48.152;11.614;2023-12-20T05:03:45;95490.38;;;8.51;55.73
72395;BME280;60384;48.152;11.614;2023-12-20T05:06:47;95467.09;;;8.15;56.62
72395;BME280;60384;48.152;11.614;2023-12-20T05:09:51;95463.44;;;7.93;56.91
72395;BME280;60384;48.152;11.614;2023-12-20T05:12:54;95515.72;;;8.08;57.62
72395;BME280;60384;48.152;11.614;2023-12-20T05:15:55;95510.81;;;7.96;58.48
72395;BME280;60384;48.152;11.614;2023-12-20T05:18:57;95370.69;;;6.94;58.78
72395;BME280;60384;48.152;11.614;2023-12-20T05:22:01;95427.97;;;7.18;58.83
72395;BME280;60384;48.152;11.614;2023-12-20T05:25:05;95513.78;;;7.71;59.20
72395;BME280;60384;48.152;11.614;2023-12-20T05:28:07;95517.47;;;7.70;59.18
72395;BME280;60384;48.152;11.614;2023-12-20T05:31:09;95498.63;;;7.56;58.50
72395;BME280;60384;48.152;11.614;2023-12-20T05:34:11;95505.91;;;7.54;58.97
72395;BME280;60384;48.152;11.614;2023-12-20T05:37:13;95538.00;;;7.68;59.05
72395;BME280;60384;48.152;11.614;2023-12-20T05:40:17;95539.69;;;7.60;59.14
72395;BME280;60384;48.152;11.614;2023-12-20T05:43:19;95487.03;;;7.26;59.19
72395;BME280;60384;48.152;11.614;2023-12-20T05:46:21;95546.16;;;7.58;59.19
72395;BME280;60384;48.152;11.614;2023-12-20T05:49:22;95552.09;;;7.60;59.16
72395;BME280;60384;48.152;11.614;2023-12-20T05:52:24;95529.19;;;7.36;59.67
72395;BME280;60384;48.152;11.614;2023-12-20T05:55:30;95560.94;;;7.52;59.68
72395;BME280;60384;48.152;11.614;2023-12-20T05:58:40;95302.28;;;5.80;59.51
72395;BME280;60384;48.152;11.614;2023-12-20T06:01:42;95526.59;;;7.20;60.19
72395;BME280;60384;48.152;11.614;2023-12-20T06:04:44;95535.56;;;7.11;60.14
72395;BME280;60384;48.152;11.614;2023-12-20T06:07:46;95512.78;;;6.85;59.99
72395;BME280;60384;48.152;11.614;2023-12-20T06:10:52;95581.19;;;7.29;60.46
72395;BME280;60384;48.152;11.614;2023-12-20T06:13:53;95555.59;;;7.05;61.21
72395;BME280;60384;48.152;11.614;2023-12-20T06:16:55;95552.13;;;7.05;61.48
72395;BME280;60384;48.152;11.614;2023-12-20T06:19:57;95477.47;;;6.54;61.64
72395;BME280;60384;48.152;11.614;2023-12-20T06:23:01;95579.72;;;7.18;61.90
72395;BME280;60384;48.152;11.614;2023-12-20T06:26:08;95253.16;;;5.14;61.50
72395;BME280;60384;48.152;11.614;2023-12-20T06:29:45;95133.06;;;4.13;62.25
72395;BME280;60384;48.152;11.614;2023-12-20T06:33:03;95144.66;;;4.36;62.33
72395;BME280;60384;48.152;11.614;2023-12-20T06:36:12;95542.25;;;6.66;62.73
72395;BME280;60384;48.152;11.614;2023-12-20T06:39:17;95384.34;;;5.71;62.53
72395;BME280;60384;48.152;11.614;2023-12-20T06:42:21;95496.69;;;6.23;62.72
72395;BME280;60384;48.152;11.614;2023-12-20T06:45:23;95420.66;;;5.69;62.82
72395;BME280;60384;48.152;11.614;2023-12-20T06:48:25;95507.44;;;6.22;63.36
72395;BME280;60384;48.152;11.614;2023-12-20T06:51:27;95618.81;;;6.84;63.90
72395;BME280;60384;48.152;11.614;2023-12-20T06:54:31;95514.50;;;6.13;64.36
72395;BME280;60384;48.152;11.614;2023-12-20T06:57:36;95426.91;;;5.59;64.44
72395;BME280;60384;48.152;11.614;2023-12-20T07:00:38;95560.47;;;6.37;64.64
72395;BME280;60384;48.152;11.614;2023-12-20T07:03:44;95587.56;;;6.39;64.79
72395;BME280;60384;48.152;11.614;2023-12-20T07:06:54;95639.00;;;6.77;64.73
72395;BME280;60384;48.152;11.614;2023-12-20T07:10:08;95652.41;;;6.75;64.92
72395;BME280;60384;48.152;11.614;2023-12-20T07:13:25;95543.75;;;6.04;65.22
72395;BME280;60384;48.152;11.614;2023-12-20T07:16:52;95504.16;;;5.53;65.08
72395;BME280;60384;48.152;11.614;2023-12-20T07:20:02;95253.44;;;4.12;64.73
72395;BME280;60384;48.152;11.614;2023-12-20T07:23:23;95665.47;;;6.60;65.39
72395;BME280;60384;48.152;11.614;2023-12-20T07:26:31;95672.72;;;6.67;65.29
72395;BME280;60384;48.152;11.614;2023-12-20T07:29:38;95557.97;;;6.03;64.96
72395;BME280;60384;48.152;11.614;2023-12-20T07:32:47;95668.44;;;6.66;65.16
72395;BME280;60384;48.152;11.614;2023-12-20T07:35:54;95488.47;;;5.52;65.45
72395;BME280;60384;48.152;11.614;2023-12-20T07:39:01;95600.09;;;6.12;65.28
72395;BME280;60384;48.152;11.614;2023-12-20T07:42:16;95309.69;;;4.37;65.32
72395;BME280;60384;48.152;11.614;2023-12-20T07:45:23;95247.31;;;4.04;65.40
72395;BME280;60384;48.152;11.614;2023-12-20T07:48:28;95307.91;;;4.38;65.62
72395;BME280;60384;48.152;11.614;2023-12-20T07:51:32;95664.28;;;6.55;65.14
72395;BME280;60384;48.152;11.614;2023-12-20T07:54:34;95694.56;;;6.69;65.75
72395;BME280;60384;48.152;11.614;2023-12-20T07:57:36;95610.66;;;6.12;65.56
72395;BME280;60384;48.152;11.614;2023-12-20T08:00:47;95322.88;;;4.37;65.48
72395;BME280;60384;48.152;11.614;2023-12-20T08:03:56;95258.31;;;3.91;65.64
72395;BME280;60384;48.152;11.614;2023-12-20T08:07:07;95696.88;;;6.72;65.51
72395;BME280;60384;48.152;11.614;2023-12-20T08:10:12;95274.69;;;4.11;65.46
72395;BME280;60384;48.152;11.614;2023-12-20T08:13:24;95721.72;;;6.79;65.88
72395;BME280;60384;48.152;11.614;2023-12-20T08:16:29;95733.59;;;6.83;65.47
72395;BME280;60384;48.152;11.614;2023-12-20T08:19:31;95347.47;;;4.46;65.18
72395;BME280;60384;48.152;11.614;2023-12-20T08:22:36;95354.41;;;4.47;65.30
72395;BME280;60384;48.152;11.614;2023-12-20T08:25:41;95399.47;;;4.70;65.21
72395;BME280;60384;48.152;11.614;2023-12-20T08:28:46;95451.66;;;4.92;65.63
72395;BME280;60384;48.152;11.614;2023-12-20T08:31:54;95711.59;;;6.58;65.64
72395;BME280;60384;48.152;11.614;2023-12-20T08:34:59;95736.72;;;6.62;66.21
72395;BME280;60384;48.152;11.614;2023-12-20T08:38:46;95710.44;;;6.60;65.99
72395;BME280;60384;48.152;11.614;2023-12-20T08:42:00;95550.22;;;5.59;65.72
72395;BME280;60384;48.152;11.614;2023-12-20T08:45:03;95703.66;;;6.58;66.08
72395;BME280;60384;48.152;11.614;2023-12-20T08:48:07;95708.78;;;6.59;66.17
72395;BME280;60384;48.152;11.614;2023-12-20T08:51:10;95654.50;;;6.31;66.04
72395;BME280;60384;48.152;11.614;2023-12-20T08:54:12;95638.31;;;6.26;65.85
72395;BME280;60384;48.152;11.614;2023-12-20T08:57:27;95566.47;;;5.80;65.61
72395;BME280;60384;48.152;11.614;2023-12-20T09:00:30;95478.00;;;5.18;65.82
72395;BME280;60384;48.152;11.614;2023-12-20T09:03:33;95735.09;;;6.85;65.84
72395;BME280;60384;48.152;11.614;2023-12-20T09:06:35;95695.22;;;6.71;65.97
72395;BME280;60384;48.152;11.614;2023-12-20T09:09:55;95443.16;;;5.14;65.81
72395;BME280;60384;48.152;11.614;2023-12-20T09:12:57;95342.06;;;4.56;65.87
72395;BME280;60384;48.152;11.614;2023-12-20T09:15:59;95430.13;;;5.21;65.46
72395;BME280;60384;48.152;11.614;2023-12-20T09:19:18;95340.88;;;4.50;65.67
72395;BME280;60384;48.152;11.614;2023-12-20T09:32:08;95714.75;;;7.02;65.62
72395;BME280;60384;48.152;11.614;2023-12-20T09:36:09;95645.13;;;6.61;65.42
72395;BME280;60384;48.152;11.614;2023-12-20T09:39:11;95700.84;;;7.00;65.54
72395;BME280;60384;48.152;11.614;2023-12-20T09:42:18;95719.06;;;7.03;65.69
72395;BME280;60384;48.152;11.614;2023-12-20T09:45:23;95631.69;;;6.46;66.12
72395;BME280;60384;48.152;11.614;2023-12-20T09:48:26;95577.78;;;6.15;65.78
72395;BME280;60384;48.152;11.614;2023-12-20T09:51:31;95449.66;;;5.36;65.37
72395;BME280;60384;48.152;11.614;2023-12-20T09:54:34;95697.88;;;6.87;65.51
72395;BME280;60384;48.152;11.614;2023-12-20T09:57:37;95594.69;;;6.38;65.70
72395;BME280;60384;48.152;11.614;2023-12-20T10:00:39;95394.53;;;5.17;65.76
72395;BME280;60384;48.152;11.614;2023-12-20T10:03:42;95699.72;;;7.11;65.19
72395;BME280;60384;48.152;11.614;2023-12-20T10:06:45;95320.06;;;4.81;64.96
72395;BME280;60384;48.152;11.614;2023-12-20T10:09:48;95551.19;;;6.33;65.04
72395;BME280;60384;48.152;11.614;2023-12-20T10:13:02;95688.63;;;7.31;65.04
72395;BME280;60384;48.152;11.614;2023-12-20T10:16:06;95697.03;;;7.35;65.07
72395;BME280;60384;48.152;11.614;2023-12-20T10:19:08;95695.56;;;7.41;65.03
72395;BME280;60384;48.152;11.614;2023-12-20T10:22:11;95263.03;;;4.80;64.73
72395;BME280;60384;48.152;11.614;2023-12-20T10:25:17;95661.94;;;7.41;64.86
72395;BME280;60384;48.152;11.614;2023-12-20T10:28:19;95340.25;;;5.31;64.63
72395;BME280;60384;48.152;11.614;2023-12-20T10:31:28;95660.28;;;7.40;65.14
72395;BME280;60384;48.152;11.614;2023-12-20T10:34:32;95636.81;;;7.29;64.89
72395;BME280;60384;48.152;11.614;2023-12-20T10:37:37;95412.13;;;5.91;64.69
72395;BME280;60384;48.152;11.614;2023-12-20T10:40:42;95704.13;;;7.67;65.07
72395;BME280;60384;48.152;11.614;2023-12-20T10:43:47;95445.28;;;6.10;64.78
72395;BME280;60384;48.152;11.614;2023-12-20T10:46:49;95375.91;;;5.83;64.95
72395;BME280;60384;48.152;11.614;2023-12-20T10:49:59;95469.91;;;6.35;65.02
72395;BME280;60384;48.152;11.614;2023-12-20T10:53:03;95314.69;;;5.39;64.78
72395;BME280;60384;48.152;11.614;2023-12-20T10:56:07;95423.84;;;6.05;65.03
72395;BME280;60384;48.152;11.614;2023-12-20T10:59:10;95667.69;;;7.69;65.15
72395;BME280;60384;48.152;11.614;2023-12-20T11:02:20;95441.19;;;6.07;65.00
72395;BME280;60384;48.152;11.614;2023-12-20T11:39:38;95637.22;;;7.65;65.22
72395;BME280;60384;48.152;11.614;2023-12-20T11:42:41;95433.38;;;6.38;64.82
72395;BME280;60384;48.152;11.614;2023-12-20T11:45:49;95643.13;;;7.75;64.86
72395;BME280;60384;48.152;11.614;2023-12-20T11:48:52;95617.34;;;7.61;64.67
72395;BME280;60384;48.152;11.614;2023-12-20T11:51:54;95516.06;;;7.12;64.51
72395;BME280;60384;48.152;11.614;2023-12-20T11:54:58;95627.69;;;7.87;64.40
72395;BME280;60384;48.152;11.614;2023-12-20T11:58:00;95622.03;;;7.90;64.40
72395;BME280;60384;48.152;11.614;2023-12-20T12:01:03;95632.94;;;7.95;64.44
72395;BME280;60384;48.152;11.614;2023-12-20T12:04:09;95624.66;;;7.98;64.40
72395;BME280;60384;48.152;11.614;2023-12-20T12:07:11;95616.19;;;8.02;63.90
72395;BME280;60384;48.152;11.614;2023-12-20T12:10:15;95259.56;;;5.61;63.88
72395;BME280;60384;48.152;11.614;2023-12-20T12:13:17;95623.81;;;8.06;64.00
72395;BME280;60384;48.152;11.614;2023-12-20T12:16:20;95610.34;;;8.07;64.05
72395;BME280;60384;48.152;11.614;2023-12-20T12:19:22;95591.34;;;7.95;64.01
72395;BME280;60384;48.152;11.614;2023-12-20T12:22:24;95619.25;;;8.14;63.80
72395;BME280;60384;48.152;11.614;2023-12-20T12:25:31;95603.19;;;8.16;63.99
72395;BME280;60384;48.152;11.614;2023-12-20T12:28:34;95605.50;;;8.19;63.55
72395;BME280;60384;48.152;11.614;2023-12-20T12:31:36;95607.97;;;8.20;63.58
72395;BME280;60384;48.152;11.614;2023-12-20T12:34:39;95603.16;;;8.24;63.51
72395;BME280;60384;48.152;11.614;2023-12-20T12:37:41;95603.94;;;8.24;63.52
72395;BME280;60384;48.152;11.614;2023-12-20T12:40:44;95592.81;;;8.29;63.58
72395;BME280;60384;48.152;11.614;2023-12-20T12:43:46;95586.19;;;8.25;63.48
72395;BME280;60384;48.152;11.614;2023-12-20T12:46:48;95576.25;;;8.27;63.42
72395;BME280;60384;48.152;11.614;2023-12-20T12:49:51;95584.22;;;8.27;63.29
72395;BME280;60384;48.152;11.614;2023-12-20T12:52:54;95579.72;;;8.27;63.22
72395;BME280;60384;48.152;11.614;2023-12-20T12:55:57;95581.38;;;8.28;63.27
72395;BME280;60384;48.152;11.614;2023-12-20T12:58:59;95587.41;;;8.22;63.39
72395;BME280;60384;48.152;11.614;2023-12-20T13:02:01;95548.63;;;7.90;63.38
72395;BME280;60384;48.152;11.614;2023-12-20T13:05:04;95598.41;;;8.11;63.34
72395;BME280;60384;48.152;11.614;2023-12-20T13:08:06;95605.75;;;8.01;63.83
72395;BME280;60384;48.152;11.614;2023-12-20T13:11:10;95491.94;;;6.99;64.09
72395;BME280;60384;48.152;11.614;2023-12-20T13:14:12;95584.34;;;7.32;64.84
72395;BME280;60384;48.152;11.614;2023-12-20T13:17:16;95211.59;;;4.84;64.71
72395;BME280;60384;48.152;11.614;2023-12-20T13:20:18;95475.34;;;6.49;65.15
72395;BME280;60384;48.152;11.614;2023-12-20T13:23:22;95590.00;;;7.05;65.38
72395;BME280;60384;48.152;11.614;2023-12-20T13:26:25;95600.47;;;6.90;65.61
72395;BME280;60384;48.152;11.614;2023-12-20T13:29:27;95603.28;;;6.97;65.58
72395;BME280;60384;48.152;11.614;2023-12-20T13:32:29;95611.03;;;6.82;65.50
72395;BME280;60384;48.152;11.614;2023-12-20T13:35:32;95624.09;;;6.84;66.04
72395;BME280;60384;48.152;11.614;2023-12-20T13:38:34;95328.53;;;5.01;65.62
72395;BME280;60384;48.152;11.614;2023-12-20T13:41:37;95599.97;;;6.46;65.76
72395;BME280;60384;48.152;11.614;2023-12-20T13:44:44;95579.66;;;6.55;65.51
72395;BME280;60384;48.152;11.614;2023-12-20T13:47:51;95515.31;;;5.98;65.49
72395;BME280;60384;48.152;11.614;2023-12-20T13:50:54;95636.03;;;6.80;65.57
72395;BME280;60384;48.152;11.614;2023-12-20T13:53:56;95295.63;;;4.63;65.17
72395;BME280;60384;48.152;11.614;2023-12-20T13:57:01;95245.13;;;4.33;65.52
72395;BME280;60384;48.152;11.614;2023-12-20T14:00:04;95486.91;;;5.91;65.23
72395;BME280;60384;48.152;11.614;2023-12-20T14:03:08;95575.03;;;6.41;65.33
72395;BME280;60384;48.152;11.614;2023-12-20T14:06:11;95628.56;;;6.83;65.10
72395;BME280;60384;48.152;11.614;2023-12-20T14:09:14;95525.09;;;6.21;64.80
72395;BME280;60384;48.152;11.614;2023-12-20T14:12:17;95634.88;;;6.90;64.77
72395;BME280;60384;48.152;11.614;2023-12-20T14:15:20;95629.25;;;6.77;65.08
72395;BME280;60384;48.152;11.614;2023-12-20T14:18:25;95640.81;;;6.84;64.92
72395;BME280;60384;48.152;11.614;2023-12-20T14:21:28;95641.66;;;6.85;64.76
72395;BME280;60384;48.152;11.614;2023-12-20T14:24:29;95652.38;;;6.83;64.74
72395;BME280;60384;48.152;11.614;2023-12-20T14:27:33;95626.28;;;6.72;64.65
72395;BME280;60384;48.152;11.614;2023-12-20T14:30:35;95420.97;;;5.49;64.60
72395;BME280;60384;48.152;11.614;2023-12-20T14:33:38;95621.63;;;6.66;64.35
72395;BME280;60384;48.152;11.614;2023-12-20T14:36:42;95611.88;;;6.58;64.67
72395;BME280;60384;48.152;11.614;2023-12-20T14:39:44;95663.50;;;6.79;64.39
72395;BME280;60384;48.152;11.614;2023-12-20T14:42:47;95594.50;;;6.32;64.33
72395;BME280;60384;48.152;11.614;2023-12-20T14:45:49;95656.53;;;6.78;64.12
72395;BME280;60384;48.152;11.614;2023-12-20T14:48:52;95552.84;;;6.17;63.96
72395;BME280;60384;48.152;11.614;2023-12-20T14:51:54;95632.22;;;6.58;64.00
72395;BME280;60384;48.152;11.614;2023-12-20T14:54:56;95640.16;;;6.66;64.10
72395;BME280;60384;48.152;11.614;2023-12-20T14:57:59;95638.50;;;6.73;63.85
72395;BME280;60384;48.152;11.614;2023-12-20T15:01:02;95373.84;;;5.04;63.75
72395;BME280;60384;48.152;11.614;2023-12-20T15:04:04;95689.13;;;6.78;63.72
72395;BME280;60384;48.152;11.614;2023-12-20T15:07:06;95691.78;;;6.78;63.87
72395;BME280;60384;48.152;11.614;2023-12-20T15:10:09;95367.88;;;4.86;63.85
72395;BME280;60384;48.152;11.614;2023-12-20T15:13:12;95658.53;;;6.76;63.66
72395;BME280;60384;48.152;11.614;2023-12-20T15:16:14;95667.59;;;6.65;63.51
72395;BME280;60384;48.152;11.614;2023-12-20T15:19:16;95675.53;;;6.57;63.75
72395;BME280;60384;48.152;11.614;2023-12-20T15:22:18;95666.63;;;6.58;63.61
72395;BME280;60384;48.152;11.614;2023-12-20T15:25:20;95664.59;;;6.52;63.45
72395;BME280;60384;48.152;11.614;2023-12-20T15:28:23;95662.31;;;6.65;63.51
72395;BME280;60384;48.152;11.614;2023-12-20T15:31:25;95392.16;;;4.98;63.42
72395;BME280;60384;48.152;11.614;2023-12-20T15:34:27;95657.19;;;6.63;63.54
72395;BME280;60384;48.152;11.614;2023-12-20T15:37:29;95657.19;;;6.63;63.12
72395;BME280;60384;48.152;11.614;2023-12-20T15:40:31;95656.34;;;6.63;62.92
72395;BME280;60384;48.152;11.614;2023-12-20T15:43:35;95353.94;;;4.60;63.00
72395;BME280;60384;48.152;11.614;2023-12-20T15:46:38;95608.19;;;6.27;62.88
72395;BME280;60384;48.152;11.614;2023-12-20T15:49:40;95375.31;;;4.91;63.19
72395;BME280;60384;48.152;11.614;2023-12-20T15:52:42;95683.94;;;6.52;63.18
72395;BME280;60384;48.152;11.614;2023-12-20T15:55:53;95445.19;;;5.29;62.68
72395;BME280;60384;48.152;11.614;2023-12-20T15:58:57;95137.91;;;3.33;62.96
72395;BME280;60384;48.152;11.614;2023-12-20T16:02:05;95253.66;;;3.85;62.63
72395;BME280;60384;48.152;11.614;2023-12-20T16:05:10;95266.59;;;4.04;62.41
72395;BME280;60384;48.152;11.614;2023-12-20T16:08:13;95215.81;;;3.52;62.85
72395;BME280;60384;48.152;11.614;2023-12-20T16:11:15;95659.44;;;6.34;62.80
72395;BME280;60384;48.152;11.614;2023-12-20T16:14:21;95241.91;;;3.71;62.83
72395;BME280;60384;48.152;11.614;2023-12-20T16:17:26;95129.59;;;2.86;62.45
72395;BME280;60384;48.152;11.614;2023-12-20T16:20:29;95232.59;;;3.51;62.41
72395;BME280;60384;48.152;11.614;2023-12-20T16:23:32;95211.69;;;3.49;62.67
72395;BME280;60384;48.152;11.614;2023-12-20T16:26:34;95554.19;;;5.55;62.35
72395;BME280;60384;48.152;11.614;2023-12-20T16:29:39;95197.22;;;3.28;62.58
72395;BME280;60384;48.152;11.614;2023-12-20T16:32:41;95671.50;;;6.20;62.62
72395;BME280;60384;48.152;11.614;2023-12-20T16:35:44;95215.66;;;3.28;62.46
72395;BME280;60384;48.152;11.614;2023-12-20T16:38:46;95210.75;;;3.33;62.50
72395;BME280;60384;48.152;11.614;2023-12-20T16:41:49;95504.03;;;5.13;62.37
72395;BME280;60384;48.152;11.614;2023-12-20T16:45:07;95349.06;;;4.05;62.39
72395;BME280;60384;48.152;11.614;2023-12-20T16:48:10;95196.91;;;3.05;62.24
72395;BME280;60384;48.152;11.614;2023-12-20T16:51:12;95553.25;;;5.38;62.11
72395;BME280;60384;48.152;11.614;2023-12-20T16:54:19;95564.09;;;5.19;62.12
72395;BME280;60384;48.152;11.614;2023-12-20T16:57:22;95580.69;;;5.45;62.23
72395;BME280;60384;48.152;11.614;2023-12-20T17:00:25;95704.72;;;6.23;61.93